createdAt,value
2018-03-17T00:01:24.422Z,2.10
2018-03-17T00:03:51.938Z,2.10
2018-03-17T00:06:19.435Z,2.10
2018-03-17T00:08:46.966Z,2.20
2018-03-17T00:11:14.467Z,2.20
2018-03-17T00:13:42.755Z,2.10
2018-03-17T00:16:11.018Z,2.10
2018-03-17T00:18:39.301Z,2.00
2018-03-17T00:21:07.562Z,2.00
2018-03-17T00:23:35.856Z,2.00
2018-03-17T00:26:04.132Z,1.90
2018-03-17T00:28:32.414Z,2.00
2018-03-17T00:30:59.918Z,2.00
2018-03-17T00:33:27.440Z,2.00
2018-03-17T00:35:54.959Z,2.10
2018-03-17T00:38:22.459Z,2.10
2018-03-17T00:40:49.978Z,2.10
2018-03-17T00:43:17.484Z,2.00
2018-03-17T00:45:45.003Z,2.00
2018-03-17T00:48:13.270Z,2.00
2018-03-17T00:50:40.822Z,1.90
2018-03-17T00:53:08.325Z,1.90
2018-03-17T00:55:35.847Z,2.00
2018-03-17T00:58:04.125Z,1.90
2018-03-17T01:00:32.406Z,1.90
2018-03-17T01:03:00.678Z,1.90
2018-03-17T01:05:28.963Z,1.90
2018-03-17T01:07:57.230Z,1.90
2018-03-17T01:10:25.510Z,1.80
2018-03-17T01:12:53.774Z,1.80
2018-03-17T01:15:21.296Z,1.80
2018-03-17T01:17:48.807Z,1.80
2018-03-17T01:20:17.095Z,1.80
2018-03-17T01:22:44.596Z,1.80
2018-03-17T01:25:12.110Z,1.80
2018-03-17T01:27:39.606Z,1.70
2018-03-17T01:30:07.122Z,1.60
2018-03-17T01:32:35.385Z,1.60
2018-03-17T01:35:03.666Z,1.50
2018-03-17T01:37:31.935Z,1.50
2018-03-17T01:40:00.216Z,1.60
2018-03-17T01:42:28.474Z,1.60
2018-03-17T01:44:55.986Z,1.60
2018-03-17T01:47:23.487Z,1.60
2018-03-17T01:49:51.004Z,1.70
2018-03-17T01:52:18.504Z,1.70
2018-03-17T01:54:46.027Z,1.70
2018-03-17T01:57:13.528Z,1.60
2018-03-17T01:59:41.814Z,1.70
2018-03-17T02:02:10.093Z,1.70
2018-03-17T02:04:38.384Z,1.80
2018-03-17T02:07:05.886Z,1.80
2018-03-17T02:09:34.176Z,1.80
2018-03-17T02:12:01.688Z,1.80
2018-03-17T02:14:29.213Z,1.80
2018-03-17T02:16:57.488Z,1.70
2018-03-17T02:19:25.779Z,1.70
2018-03-17T02:21:54.048Z,1.70
2018-03-17T02:24:22.341Z,1.70
2018-03-17T02:26:49.870Z,1.70
2018-03-17T02:29:18.157Z,1.70
2018-03-17T02:31:46.422Z,1.70
2018-03-17T02:34:14.691Z,1.60
2018-03-17T02:36:42.207Z,1.60
2018-03-17T02:39:09.711Z,1.60
2018-03-17T02:41:37.228Z,1.70
2018-03-17T02:44:04.735Z,1.70
2018-03-17T02:46:33.022Z,1.70
2018-03-17T02:49:01.294Z,1.70
2018-03-17T02:51:29.580Z,1.60
2018-03-17T02:53:57.108Z,1.60
2018-03-17T02:56:24.628Z,1.60
2018-03-17T02:58:52.131Z,1.70
2018-03-17T03:01:19.643Z,1.70
2018-03-17T03:03:47.138Z,1.70
2018-03-17T03:06:14.664Z,1.80
2018-03-17T03:08:42.168Z,1.90
2018-03-17T03:11:10.463Z,1.80
2018-03-17T03:13:37.965Z,1.80
2018-03-17T03:16:05.908Z,1.80
2018-03-17T03:18:33.408Z,1.70
2018-03-17T03:21:00.920Z,1.70
2018-03-17T03:23:28.418Z,1.70
2018-03-17T03:25:55.955Z,1.70
2018-03-17T03:28:23.460Z,1.70
2018-03-17T03:30:51.746Z,1.70
2018-03-17T03:33:20.018Z,1.70
2018-03-17T03:35:48.299Z,1.70
2018-03-17T03:38:16.563Z,1.70
2018-03-17T03:40:44.845Z,1.70
2018-03-17T03:43:13.408Z,1.80
2018-03-17T03:45:40.936Z,1.70
2018-03-17T03:48:09.199Z,1.70
2018-03-17T03:50:36.715Z,1.70
2018-03-17T03:53:04.978Z,1.60
2018-03-17T03:55:32.484Z,1.60
2018-03-17T03:57:59.982Z,1.60
2018-03-17T04:00:27.499Z,1.60
2018-03-17T04:02:55.003Z,1.70
2018-03-17T04:05:22.519Z,1.70
2018-03-17T04:07:50.023Z,1.80
2018-03-17T04:10:17.542Z,1.80
2018-03-17T04:12:45.039Z,1.80
2018-03-17T04:15:12.554Z,1.70
2018-03-17T04:17:40.075Z,1.70
2018-03-17T04:20:08.350Z,1.60
2018-03-17T04:22:36.615Z,1.60
2018-03-17T04:25:04.135Z,1.50
2018-03-17T04:27:31.642Z,1.50
2018-03-17T04:29:59.931Z,1.40
2018-03-17T04:32:27.435Z,1.40
2018-03-17T04:34:54.947Z,1.40
2018-03-17T04:37:22.464Z,1.40
2018-03-17T04:39:49.955Z,1.40
2018-03-17T04:42:18.230Z,1.40
2018-03-17T04:44:46.494Z,1.40
2018-03-17T04:47:14.783Z,1.40
2018-03-17T04:49:43.056Z,1.40
2018-03-17T04:52:11.339Z,1.40
2018-03-17T04:54:39.632Z,1.50
2018-03-17T04:57:07.159Z,1.40
2018-03-17T04:59:35.428Z,1.40
2018-03-17T05:02:02.947Z,1.40
2018-03-17T05:04:30.446Z,1.40
2018-03-17T05:06:58.736Z,1.30
2018-03-17T05:09:27.007Z,1.30
2018-03-17T05:11:55.288Z,1.30
2018-03-17T05:14:23.564Z,1.20
2018-03-17T05:16:51.847Z,1.20
2018-03-17T05:19:19.351Z,1.20
2018-03-17T05:21:46.871Z,1.20
2018-03-17T05:24:14.370Z,1.20
2018-03-17T05:26:41.891Z,1.20
2018-03-17T05:29:09.390Z,1.20
2018-03-17T05:31:36.913Z,1.20
2018-03-17T05:34:04.425Z,1.20
2018-03-17T05:36:31.943Z,1.20
2018-03-17T05:38:59.451Z,1.20
2018-03-17T05:41:27.743Z,1.30
2018-03-17T05:43:56.018Z,1.30
2018-03-17T05:46:24.306Z,1.30
2018-03-17T05:48:51.810Z,1.30
2018-03-17T05:51:19.333Z,1.30
2018-03-17T05:53:46.841Z,1.40
2018-03-17T05:56:14.358Z,1.40
2018-03-17T05:58:41.915Z,1.40
2018-03-17T06:01:10.168Z,1.50
2018-03-17T06:03:37.671Z,1.50
2018-03-17T06:06:05.191Z,1.50
2018-03-17T06:08:32.703Z,1.50
2018-03-17T06:11:00.220Z,1.60
2018-03-17T06:13:27.720Z,1.50
2018-03-17T06:15:55.239Z,1.50
2018-03-17T06:18:22.744Z,1.60
2018-03-17T06:20:50.264Z,1.60
2018-03-17T06:23:18.013Z,1.70
2018-03-17T06:25:45.528Z,1.70
2018-03-17T06:28:13.790Z,1.80
2018-03-17T06:30:41.302Z,1.70
2018-03-17T06:33:08.803Z,1.80
2018-03-17T06:35:36.340Z,1.80
2018-03-17T06:38:03.835Z,1.80
2018-03-17T06:40:31.335Z,1.90
2018-03-17T06:42:58.852Z,2.00
2018-03-17T06:45:27.118Z,2.30
2018-03-17T06:47:54.652Z,2.30
2018-03-17T06:50:22.155Z,2.40
2018-03-17T06:52:50.443Z,2.70
2018-03-17T06:55:17.952Z,2.60
2018-03-17T06:57:45.481Z,2.90
2018-03-17T07:00:12.983Z,3.20
2018-03-17T07:02:40.498Z,3.40
2018-03-17T07:05:08.007Z,3.50
2018-03-17T07:07:35.532Z,3.60
2018-03-17T07:10:03.039Z,3.80
2018-03-17T07:12:31.327Z,4.30
2018-03-17T07:14:58.834Z,4.30
2018-03-17T07:17:26.351Z,4.60
2018-03-17T07:19:53.856Z,4.90
2018-03-17T07:22:21.388Z,5.20
2018-03-17T07:24:48.891Z,5.40
2018-03-17T07:27:16.410Z,5.50
2018-03-17T07:29:43.919Z,5.60
2018-03-17T07:32:12.206Z,5.80
2018-03-17T07:34:39.716Z,5.70
2018-03-17T07:37:07.239Z,6.00
2018-03-17T07:39:34.743Z,6.00
2018-03-17T07:42:02.263Z,6.30
2018-03-17T07:44:29.767Z,6.20
2018-03-17T07:46:57.295Z,6.40
2018-03-17T07:49:24.802Z,6.50
2018-03-17T07:51:53.086Z,6.30
2018-03-17T07:54:21.359Z,6.40
2018-03-17T07:56:49.642Z,6.70
2018-03-17T07:59:17.152Z,6.70
2018-03-17T08:01:44.676Z,6.80
2018-03-17T08:04:12.188Z,6.80
2018-03-17T08:06:39.947Z,6.70
2018-03-17T08:09:07.766Z,6.60
2018-03-17T08:11:35.292Z,6.80
2018-03-17T08:14:03.566Z,7.00
2018-03-17T08:16:31.851Z,7.00
2018-03-17T08:19:00.124Z,7.10
2018-03-17T08:21:28.411Z,6.90
2018-03-17T08:23:55.919Z,6.90
2018-03-17T08:26:23.438Z,7.00
2018-03-17T08:28:50.951Z,7.30
2018-03-17T08:31:18.456Z,7.40
2018-03-17T08:33:45.971Z,7.40
2018-03-17T08:36:13.475Z,7.50
2018-03-17T08:38:41.002Z,7.30
2018-03-17T08:41:09.271Z,7.00
2018-03-17T08:43:37.555Z,7.30
2018-03-17T08:46:05.827Z,7.70
2018-03-17T08:48:34.116Z,7.70
2018-03-17T08:51:02.399Z,7.60
2018-03-17T08:53:29.916Z,7.60
2018-03-17T08:55:57.431Z,7.80
2018-03-17T08:58:24.954Z,7.40
2018-03-17T09:00:53.223Z,7.70
2018-03-17T09:03:21.511Z,7.60
2018-03-17T09:05:49.783Z,8.10
2018-03-17T09:08:18.075Z,8.10
2018-03-17T09:10:45.627Z,8.10
2018-03-17T09:13:13.902Z,7.80
2018-03-17T09:15:42.183Z,7.00
2018-03-17T09:18:09.711Z,7.00
2018-03-17T09:20:37.216Z,6.60
2018-03-17T09:23:04.739Z,6.70
2018-03-17T09:25:33.010Z,5.90
2018-03-17T09:28:01.299Z,5.80
2018-03-17T09:30:29.576Z,5.80
2018-03-17T09:32:57.864Z,5.70
2018-03-17T09:35:25.374Z,5.70
2018-03-17T09:37:52.892Z,5.80
2018-03-17T09:40:20.403Z,5.90
2018-03-17T09:42:47.935Z,5.80
2018-03-17T09:45:15.448Z,5.60
2018-03-17T09:47:43.748Z,5.70
2018-03-17T09:50:11.251Z,5.60
2018-03-17T09:52:38.772Z,5.80
2018-03-17T09:55:06.276Z,5.60
2018-03-17T09:57:33.798Z,5.60
2018-03-17T10:00:01.305Z,5.50
2018-03-17T10:02:29.595Z,5.20
2018-03-17T10:04:57.111Z,5.20
2018-03-17T10:07:24.635Z,5.20
2018-03-17T10:09:52.144Z,5.00
2018-03-17T10:12:19.670Z,5.30
2018-03-17T10:14:47.173Z,5.30
2018-03-17T10:17:15.471Z,5.30
2018-03-17T10:19:43.828Z,5.30
2018-03-17T10:22:12.123Z,5.10
2018-03-17T10:24:39.639Z,5.10
2018-03-17T10:27:07.163Z,5.10
2018-03-17T10:29:34.670Z,5.30
2018-03-17T10:32:02.983Z,5.30
2018-03-17T10:34:30.485Z,5.30
2018-03-17T10:36:57.987Z,5.30
2018-03-17T10:39:25.512Z,5.40
2018-03-17T10:41:53.094Z,5.30
2018-03-17T10:44:21.384Z,5.40
2018-03-17T10:46:48.899Z,5.40
2018-03-17T10:49:16.429Z,5.50
2018-03-17T10:51:43.938Z,5.50
2018-03-17T10:54:12.227Z,5.60
2018-03-17T10:56:39.743Z,5.50
2018-03-17T10:59:07.267Z,5.60
2018-03-17T11:01:40.399Z,5.50
2018-03-17T11:04:07.935Z,5.60
2018-03-17T11:06:35.445Z,5.60
2018-03-17T11:09:03.739Z,5.50
2018-03-17T11:11:31.251Z,5.60
2018-03-17T11:13:58.777Z,5.70
2018-03-17T11:16:26.291Z,5.70
2018-03-17T11:18:54.584Z,5.70
2018-03-17T11:21:22.087Z,5.70
2018-03-17T11:23:50.371Z,5.70
2018-03-17T11:26:17.886Z,5.70
2018-03-17T11:28:46.879Z,5.60
2018-03-17T11:31:14.387Z,5.40
2018-03-17T11:33:41.916Z,5.40
2018-03-17T11:36:09.427Z,5.30
2018-03-17T11:38:37.715Z,5.30
2018-03-17T11:41:05.240Z,5.30
2018-03-17T11:43:32.776Z,5.20
2018-03-17T11:46:00.287Z,5.00
2018-03-17T11:48:27.810Z,4.90
2018-03-17T11:50:55.320Z,4.90
2018-03-17T11:53:22.846Z,4.90
2018-03-17T11:55:51.128Z,4.90
2018-03-17T11:58:19.420Z,4.90
2018-03-17T12:00:46.933Z,4.90
2018-03-17T12:03:14.469Z,5.00
2018-03-17T12:05:41.971Z,4.90
2018-03-17T12:08:10.263Z,4.90
2018-03-17T12:10:38.536Z,5.00
2018-03-17T12:13:06.828Z,5.00
2018-03-17T12:15:35.179Z,5.00
2018-03-17T12:18:03.467Z,4.90
2018-03-17T12:20:31.735Z,5.10
2018-03-17T12:23:00.020Z,5.00
2018-03-17T12:25:27.529Z,5.00
2018-03-17T12:27:55.056Z,4.90
2018-03-17T12:30:22.563Z,4.90
2018-03-17T12:32:50.087Z,4.90
2018-03-17T12:35:17.591Z,5.10
2018-03-17T12:37:45.101Z,5.30
2018-03-17T12:40:12.623Z,5.30
2018-03-17T12:42:40.897Z,4.90
2018-03-17T12:45:09.187Z,4.90
2018-03-17T12:47:36.700Z,4.90
2018-03-17T12:50:04.223Z,4.90
2018-03-17T12:52:32.031Z,4.70
2018-03-17T12:54:59.551Z,4.60
2018-03-17T12:57:27.059Z,4.70
2018-03-17T12:59:55.355Z,4.50
2018-03-17T13:02:22.866Z,4.50
2018-03-17T13:04:50.388Z,4.40
2018-03-17T13:07:17.896Z,4.50
2018-03-17T13:09:45.423Z,4.60
2018-03-17T13:12:12.922Z,4.40
2018-03-17T13:14:41.219Z,4.20
2018-03-17T13:17:08.734Z,4.20
2018-03-17T13:19:36.257Z,4.10
2018-03-17T13:22:03.758Z,4.10
2018-03-17T13:24:31.279Z,4.10
2018-03-17T13:27:10.614Z,4.20
2018-03-17T13:29:38.136Z,4.00
2018-03-17T13:32:18.676Z,4.10
2018-03-17T13:34:46.199Z,4.10
2018-03-17T13:37:19.746Z,4.10
2018-03-17T13:39:48.040Z,4.30
2018-03-17T13:42:16.312Z,4.30
2018-03-17T13:44:44.601Z,4.30
2018-03-17T13:47:12.100Z,4.30
2018-03-17T13:49:39.626Z,4.30
2018-03-17T13:52:07.140Z,4.10
2018-03-17T13:54:34.675Z,4.20
2018-03-17T13:57:02.179Z,4.10
2018-03-17T13:59:30.467Z,4.10
2018-03-17T14:01:57.975Z,4.10
2018-03-17T14:04:25.508Z,4.20
2018-03-17T14:06:53.023Z,4.10
2018-03-17T14:09:21.311Z,4.30
2018-03-17T14:11:48.819Z,4.30
2018-03-17T14:14:16.342Z,4.20
2018-03-17T14:16:43.850Z,4.00
2018-03-17T14:19:11.383Z,4.20
2018-03-17T14:21:38.890Z,3.90
2018-03-17T14:24:07.178Z,4.00
2018-03-17T14:26:35.476Z,4.10
2018-03-17T14:29:03.007Z,4.10
2018-03-17T14:31:31.278Z,4.20
2018-03-17T14:33:59.587Z,4.20
2018-03-17T14:36:27.087Z,4.20
2018-03-17T14:38:54.589Z,3.90
2018-03-17T14:41:22.119Z,3.80
2018-03-17T14:43:50.386Z,3.80
2018-03-17T14:46:17.912Z,3.70
2018-03-17T14:48:45.419Z,3.50
2018-03-17T14:51:13.703Z,3.60
2018-03-17T14:53:41.968Z,3.60
2018-03-17T14:56:10.255Z,3.50
2018-03-17T14:58:38.526Z,3.40
2018-03-17T15:01:06.812Z,3.30
2018-03-17T15:03:34.328Z,3.30
2018-03-17T15:06:01.855Z,3.20
2018-03-17T15:08:29.358Z,3.30
2018-03-17T15:10:56.881Z,3.40
2018-03-17T15:13:24.390Z,3.50
2018-03-17T15:15:52.684Z,3.60
2018-03-17T15:18:20.200Z,3.60
2018-03-17T15:20:47.718Z,3.70
2018-03-17T15:23:15.223Z,3.60
2018-03-17T15:25:42.748Z,3.60
2018-03-17T15:28:10.259Z,3.50
2018-03-17T15:30:38.539Z,3.50
2018-03-17T15:33:06.812Z,3.50
2018-03-17T15:35:35.094Z,3.50
2018-03-17T15:38:03.367Z,3.30
2018-03-17T15:40:31.651Z,3.30
2018-03-17T15:42:59.151Z,3.30
2018-03-17T15:45:26.675Z,3.20
2018-03-17T15:47:54.184Z,3.30
2018-03-17T15:50:21.707Z,3.30
2018-03-17T15:52:49.211Z,3.30
2018-03-17T15:55:16.736Z,3.20
2018-03-17T15:57:44.241Z,3.00
2018-03-17T16:00:12.534Z,3.00
2018-03-17T16:02:40.049Z,3.00
2018-03-17T16:05:07.571Z,3.00
2018-03-17T16:07:35.078Z,2.90
2018-03-17T16:10:02.600Z,2.70
2018-03-17T16:12:30.106Z,2.70
2018-03-17T16:14:58.387Z,2.50
2018-03-17T16:17:26.667Z,2.60
2018-03-17T16:19:54.975Z,2.70
2018-03-17T16:22:22.482Z,2.60
2018-03-17T16:24:50.004Z,2.60
2018-03-17T16:27:17.513Z,2.60
2018-03-17T16:29:45.810Z,2.60
2018-03-17T16:32:13.310Z,2.60
2018-03-17T16:34:40.819Z,2.60
2018-03-17T16:37:08.339Z,2.50
2018-03-17T16:39:35.848Z,2.60
2018-03-17T16:42:03.380Z,2.60
2018-03-17T16:44:31.652Z,2.50
2018-03-17T16:46:59.939Z,2.40
2018-03-17T16:49:28.495Z,2.40
2018-03-17T16:51:56.015Z,2.40
2018-03-17T16:54:23.519Z,2.50
2018-03-17T16:56:51.044Z,2.50
2018-03-17T16:59:18.555Z,2.40
2018-03-17T17:01:46.843Z,2.40
2018-03-17T17:04:14.351Z,2.40
2018-03-17T17:06:41.876Z,2.40
2018-03-17T17:09:09.379Z,2.30
2018-03-17T17:11:36.899Z,2.20
2018-03-17T17:14:04.402Z,2.30
2018-03-17T17:16:31.924Z,2.30
2018-03-17T17:18:59.427Z,2.20
2018-03-17T17:21:27.716Z,2.20
2018-03-17T17:23:55.986Z,2.20
2018-03-17T17:26:24.271Z,2.10
2018-03-17T17:28:51.778Z,2.10
2018-03-17T17:31:19.304Z,2.10
2018-03-17T17:33:46.811Z,2.10
2018-03-17T17:36:14.332Z,2.00
2018-03-17T17:38:41.837Z,2.10
2018-03-17T17:41:09.355Z,2.10
2018-03-17T17:43:36.858Z,2.10
2018-03-17T17:46:05.145Z,2.00
2018-03-17T17:48:32.676Z,1.90
2018-03-17T17:51:00.207Z,1.90
2018-03-17T17:53:27.719Z,1.80
2018-03-17T17:55:55.997Z,1.80
2018-03-17T17:58:24.287Z,1.70
2018-03-17T18:00:51.799Z,1.70
2018-03-17T18:03:19.327Z,1.70
2018-03-17T18:05:46.836Z,1.70
2018-03-17T18:08:15.126Z,1.70
2018-03-17T18:10:42.641Z,1.70
2018-03-17T18:13:10.159Z,1.70
2018-03-17T18:15:37.662Z,1.60
2018-03-17T18:18:05.183Z,1.60
2018-03-17T18:20:32.689Z,1.70
2018-03-17T18:23:00.994Z,1.60
2018-03-17T18:25:29.262Z,1.50
2018-03-17T18:27:57.556Z,1.50
2018-03-17T18:30:25.070Z,1.50
2018-03-17T18:32:52.588Z,1.40
2018-03-17T18:35:20.102Z,1.50
2018-03-17T18:37:48.671Z,1.40
2018-03-17T18:40:16.191Z,1.40
2018-03-17T18:42:43.702Z,1.30
2018-03-17T18:45:11.994Z,1.10
2018-03-17T18:47:40.267Z,1.00
2018-03-17T18:50:08.564Z,0.90
2018-03-17T18:52:36.071Z,0.90
2018-03-17T18:55:05.094Z,0.80
2018-03-17T18:57:33.362Z,0.80
2018-03-17T19:00:01.656Z,0.80
2018-03-17T19:02:29.172Z,0.80
2018-03-17T19:04:56.695Z,0.70
2018-03-17T19:07:24.198Z,0.70
2018-03-17T19:09:52.169Z,0.70
2018-03-17T19:12:19.678Z,0.60
2018-03-17T19:14:47.199Z,0.60
2018-03-17T19:17:15.467Z,0.60
2018-03-17T19:19:43.757Z,0.60
2018-03-17T19:22:12.037Z,0.60
2018-03-17T19:24:40.323Z,0.60
2018-03-17T19:27:07.837Z,0.60
2018-03-17T19:29:35.359Z,0.50
2018-03-17T19:32:02.871Z,0.40
2018-03-17T19:34:31.155Z,0.40
2018-03-17T19:36:59.431Z,0.40
2018-03-17T19:39:27.723Z,0.40
2018-03-17T19:41:55.230Z,0.30
2018-03-17T19:44:22.820Z,0.30
2018-03-17T19:46:50.279Z,0.30
2018-03-17T19:49:18.566Z,0.20
2018-03-17T19:51:46.836Z,0.20
2018-03-17T19:54:15.131Z,0.20
2018-03-17T19:56:42.649Z,0.20
2018-03-17T19:59:10.168Z,0.10
2018-03-17T20:01:37.679Z,0.10
2018-03-17T20:04:05.971Z,0.00
2018-03-17T20:06:34.238Z,0.10
2018-03-17T20:09:02.528Z,0.00
2018-03-17T20:11:30.040Z,0.00
2018-03-17T20:13:57.567Z,0.00
2018-03-17T20:16:25.067Z,0.00
2018-03-17T20:18:52.599Z,0.00
2018-03-17T20:21:20.108Z,0.00
2018-03-17T20:23:48.403Z,-0.10
2018-03-17T20:26:15.919Z,-0.10
2018-03-17T20:28:43.443Z,-0.10
2018-03-17T20:31:10.946Z,-0.10
2018-03-17T20:33:39.243Z,-0.30
2018-03-17T20:36:06.756Z,-0.30
2018-03-17T20:38:34.267Z,-0.30
2018-03-17T20:41:01.790Z,-0.40
2018-03-17T20:43:29.299Z,-0.30
2018-03-17T20:45:56.826Z,-0.30
2018-03-17T20:48:25.100Z,-0.40
2018-03-17T20:50:53.391Z,-0.50
2018-03-17T20:53:20.898Z,-0.50
2018-03-17T20:55:48.422Z,-0.50
2018-03-17T20:58:15.935Z,-0.50
2018-03-17T21:00:43.467Z,-0.50
2018-03-17T21:03:10.974Z,-0.50
2018-03-17T21:05:39.264Z,-0.50
2018-03-17T21:08:06.771Z,-0.50
2018-03-17T21:10:34.298Z,-0.50
2018-03-17T21:13:01.820Z,-0.50
2018-03-17T21:15:30.111Z,-0.60
2018-03-17T21:17:57.618Z,-0.60
2018-03-17T21:20:25.147Z,-0.60
2018-03-17T21:22:52.658Z,-0.60
2018-03-17T21:25:20.946Z,-0.70
2018-03-17T21:27:49.223Z,-0.70
2018-03-17T21:30:17.519Z,-0.70
2018-03-17T21:32:45.027Z,-0.70
2018-03-17T21:35:12.558Z,-0.70
2018-03-17T21:37:40.072Z,-0.70
2018-03-17T21:40:08.371Z,-0.70
2018-03-17T21:42:35.927Z,-0.70
2018-03-17T21:45:04.191Z,-0.80
2018-03-17T21:47:32.077Z,-0.80
2018-03-17T21:49:59.603Z,-0.70
2018-03-17T21:52:27.875Z,-0.80
2018-03-17T21:54:56.166Z,-0.90
2018-03-17T21:57:23.674Z,-0.90
2018-03-17T21:59:51.201Z,-0.90
2018-03-17T22:02:18.711Z,-0.90
2018-03-17T22:04:46.238Z,-0.90
2018-03-17T22:07:14.193Z,-0.90
2018-03-17T22:09:41.721Z,-0.80
2018-03-17T22:12:09.991Z,-0.90
2018-03-17T22:14:38.283Z,-0.90
2018-03-17T22:17:05.790Z,-0.90
2018-03-17T22:19:33.566Z,-0.90
2018-03-17T22:22:01.080Z,-0.90
2018-03-17T22:24:28.616Z,-1.00
2018-03-17T22:26:56.127Z,-0.90
2018-03-17T22:29:23.663Z,-1.00
2018-03-17T22:31:51.181Z,-1.00
2018-03-17T22:34:19.471Z,-1.10
2018-03-17T22:36:46.987Z,-1.10
2018-03-17T22:39:14.499Z,-1.00
2018-03-17T22:41:42.023Z,-1.10
2018-03-17T22:44:10.301Z,-1.10
2018-03-17T22:46:38.591Z,-1.00
2018-03-17T22:49:07.888Z,-1.00
2018-03-17T22:51:36.183Z,-1.00
2018-03-17T22:54:03.691Z,-1.10
2018-03-17T22:56:31.214Z,-1.10
2018-03-17T22:58:58.862Z,-1.10
2018-03-17T23:01:26.395Z,-1.10
2018-03-17T23:03:54.667Z,-1.10
2018-03-17T23:06:22.959Z,-1.10
2018-03-17T23:08:50.463Z,-1.20
2018-03-17T23:11:17.987Z,-1.10
2018-03-17T23:13:45.494Z,-1.10
2018-03-17T23:16:13.026Z,-1.10
2018-03-17T23:18:40.535Z,-1.10
2018-03-17T23:21:08.832Z,-1.20
2018-03-17T23:23:36.342Z,-1.20
2018-03-17T23:26:03.884Z,-1.20
2018-03-17T23:28:31.391Z,-1.10
2018-03-17T23:30:59.679Z,-1.20
2018-03-17T23:33:27.191Z,-1.20
2018-03-17T23:35:54.718Z,-1.20
2018-03-17T23:38:22.227Z,-1.20
2018-03-17T23:40:50.528Z,-1.20
2018-03-17T23:43:18.038Z,-1.30
2018-03-17T23:45:45.572Z,-1.30
2018-03-17T23:48:13.083Z,-1.30
2018-03-17T23:50:41.379Z,-1.30
2018-03-17T23:53:08.895Z,-1.30
2018-03-17T23:55:36.419Z,-1.30
2018-03-17T23:58:03.926Z,-1.20
